createdAt,value
2018-10-06T00:01:06.094Z,98047.72
2018-10-06T00:03:34.578Z,98054.17
2018-10-06T00:06:02.742Z,98050.30
2018-10-06T00:08:30.981Z,98050.03
2018-10-06T00:10:59.480Z,98049.42
2018-10-06T00:13:27.654Z,98053.70
2018-10-06T00:15:55.830Z,98057.47
2018-10-06T00:18:24.044Z,98054.31
2018-10-06T00:20:52.212Z,98056.00
2018-10-06T00:23:20.394Z,98051.53
2018-10-06T00:25:48.612Z,98052.95
2018-10-06T00:28:16.843Z,98044.64
2018-10-06T00:30:45.032Z,98045.80
2018-10-06T00:33:13.278Z,98039.73
2018-10-06T00:35:41.493Z,98036.54
2018-10-06T00:38:09.674Z,98028.91
2018-10-06T00:40:37.853Z,98025.30
2018-10-06T00:43:06.018Z,98028.77
2018-10-06T00:45:34.264Z,98027.25
2018-10-06T00:48:02.531Z,98027.63
2018-10-06T00:50:30.709Z,98019.34
2018-10-06T00:52:59.124Z,98020.00
2018-10-06T00:55:27.356Z,98028.59
2018-10-06T00:57:55.532Z,98022.22
2018-10-06T01:00:23.808Z,98016.95
2018-10-06T01:02:51.976Z,98017.88
2018-10-06T01:05:20.181Z,98012.23
2018-10-06T01:07:48.692Z,98013.71
2018-10-06T01:10:16.904Z,98021.95
2018-10-06T01:12:45.158Z,98019.52
2018-10-06T01:15:13.432Z,98014.98
2018-10-06T01:17:41.688Z,98015.02
2018-10-06T01:20:09.939Z,98018.58
2018-10-06T01:22:38.248Z,98019.20
2018-10-06T01:25:06.701Z,98011.71
2018-10-06T01:27:35.037Z,98012.51
2018-10-06T01:30:03.257Z,97999.86
2018-10-06T01:32:31.737Z,98008.45
2018-10-06T01:34:59.957Z,98000.11
2018-10-06T01:37:28.125Z,98006.55
2018-10-06T01:39:56.281Z,98006.86
2018-10-06T01:42:24.513Z,98004.77
2018-10-06T01:44:52.693Z,98006.91
2018-10-06T01:47:20.971Z,98012.87
2018-10-06T01:49:49.145Z,98003.55
2018-10-06T01:52:17.449Z,97998.94
2018-10-06T01:54:45.709Z,97994.88
2018-10-06T01:57:13.880Z,97998.63
2018-10-06T01:59:42.164Z,98001.27
2018-10-06T02:02:10.410Z,97998.32
2018-10-06T02:04:38.592Z,98000.05
2018-10-06T02:07:06.778Z,97996.45
2018-10-06T02:09:35.032Z,97992.95
2018-10-06T02:12:03.222Z,97989.56
2018-10-06T02:14:31.400Z,97998.50
2018-10-06T02:16:59.573Z,98000.95
2018-10-06T02:19:27.770Z,98004.77
2018-10-06T02:21:55.957Z,98001.33
2018-10-06T02:24:24.178Z,97993.84
2018-10-06T02:26:52.361Z,98002.81
2018-10-06T02:29:20.546Z,97999.44
2018-10-06T02:31:48.710Z,97997.97
2018-10-06T02:34:16.873Z,98004.36
2018-10-06T02:36:45.107Z,97998.09
2018-10-06T02:39:13.333Z,97999.85
2018-10-06T02:41:41.505Z,97993.05
2018-10-06T02:44:09.690Z,97990.95
2018-10-06T02:46:37.853Z,97990.47
2018-10-06T02:49:06.045Z,97998.13
2018-10-06T02:51:34.335Z,97996.11
2018-10-06T02:54:02.481Z,97988.13
2018-10-06T02:56:30.677Z,97987.64
2018-10-06T02:58:59.228Z,97986.56
2018-10-06T03:01:27.439Z,97990.28
2018-10-06T03:03:55.593Z,97985.67
2018-10-06T03:06:23.776Z,97977.09
2018-10-06T03:08:52.029Z,97986.17
2018-10-06T03:11:20.192Z,97992.37
2018-10-06T03:13:48.632Z,97977.89
2018-10-06T03:16:16.796Z,97978.50
2018-10-06T03:18:45.039Z,97985.25
2018-10-06T03:21:13.216Z,97979.61
2018-10-06T03:23:41.382Z,97977.45
2018-10-06T03:26:09.545Z,97970.52
2018-10-06T03:28:37.752Z,97975.98
2018-10-06T03:31:05.973Z,97979.73
2018-10-06T03:33:34.156Z,97972.06
2018-10-06T03:36:02.358Z,97972.98
2018-10-06T03:38:30.517Z,97961.94
2018-10-06T03:40:58.705Z,97952.24
2018-10-06T03:43:26.877Z,97948.23
2018-10-06T03:45:55.056Z,97954.73
2018-10-06T03:48:23.292Z,97958.23
2018-10-06T03:50:51.756Z,97956.84
2018-10-06T03:53:19.917Z,97952.24
2018-10-06T03:55:48.386Z,97961.02
2018-10-06T03:58:16.645Z,97967.09
2018-10-06T04:00:44.916Z,97961.94
2018-10-06T04:03:13.073Z,97952.48
2018-10-06T04:05:41.584Z,97947.88
2018-10-06T04:08:09.743Z,97953.09
2018-10-06T04:10:37.920Z,97944.63
2018-10-06T04:13:06.292Z,97940.51
2018-10-06T04:15:34.478Z,97939.89
2018-10-06T04:18:02.759Z,97940.16
2018-10-06T04:20:30.942Z,97941.23
2018-10-06T04:22:59.128Z,97945.56
2018-10-06T04:25:27.374Z,97942.80
2018-10-06T04:27:55.760Z,97947.21
2018-10-06T04:30:23.926Z,97949.05
2018-10-06T04:32:52.089Z,97941.50
2018-10-06T04:35:20.286Z,97941.88
2018-10-06T04:37:48.609Z,97943.59
2018-10-06T04:40:17.033Z,97946.30
2018-10-06T04:42:45.226Z,97953.30
2018-10-06T04:45:13.393Z,97947.83
2018-10-06T04:47:41.557Z,97941.14
2018-10-06T04:50:09.745Z,97951.48
2018-10-06T04:52:38.105Z,97945.66
2018-10-06T04:55:06.341Z,97950.64
2018-10-06T04:57:34.507Z,97961.56
2018-10-06T05:00:02.781Z,97967.77
2018-10-06T05:02:30.953Z,97971.88
2018-10-06T05:04:59.201Z,97962.98
2018-10-06T05:07:27.479Z,97953.34
2018-10-06T05:09:55.743Z,97962.55
2018-10-06T05:12:23.956Z,97956.59
2018-10-06T05:14:52.128Z,97952.24
2018-10-06T05:17:20.373Z,97955.19
2018-10-06T05:19:48.653Z,97956.16
2018-10-06T05:22:16.913Z,97955.73
2018-10-06T05:24:45.084Z,97962.11
2018-10-06T05:27:13.281Z,97962.50
2018-10-06T05:29:41.804Z,97962.02
2018-10-06T05:32:10.020Z,97962.30
2018-10-06T05:34:38.220Z,97956.30
2018-10-06T05:37:06.468Z,97952.50
2018-10-06T05:39:34.679Z,97958.56
2018-10-06T05:42:02.950Z,97962.17
2018-10-06T05:44:31.102Z,97962.95
2018-10-06T05:46:59.281Z,97975.39
2018-10-06T05:49:27.561Z,97978.73
2018-10-06T05:51:55.817Z,97975.77
2018-10-06T05:54:23.989Z,97984.57
2018-10-06T05:56:52.173Z,97979.84
2018-10-06T05:59:20.456Z,97976.66
2018-10-06T06:01:48.737Z,97973.25
2018-10-06T06:04:16.917Z,97964.86
2018-10-06T06:06:45.161Z,97966.17
2018-10-06T06:09:13.345Z,97967.42
2018-10-06T06:11:41.639Z,97954.58
2018-10-06T06:14:09.909Z,97952.85
2018-10-06T06:16:38.176Z,97957.73
2018-10-06T06:19:06.669Z,97950.48
2018-10-06T06:21:34.866Z,97945.59
2018-10-06T06:24:03.216Z,97943.34
2018-10-06T06:26:31.538Z,97943.32
2018-10-06T06:28:59.916Z,97956.13
2018-10-06T06:31:28.204Z,97954.37
2018-10-06T06:33:56.386Z,97951.75
2018-10-06T06:36:24.554Z,97952.03
2018-10-06T06:38:52.930Z,97950.81
2018-10-06T06:41:21.114Z,97954.28
2018-10-06T06:43:49.399Z,97945.67
2018-10-06T06:46:18.516Z,97939.56
2018-10-06T06:48:46.713Z,97937.64
2018-10-06T06:51:14.897Z,97938.38
2018-10-06T06:53:43.149Z,97937.02
2018-10-06T06:56:11.329Z,97937.42
2018-10-06T06:58:40.187Z,97939.80
2018-10-06T07:01:08.357Z,97938.64
2018-10-06T07:03:36.585Z,97949.75
2018-10-06T07:06:04.823Z,97949.52
2018-10-06T07:08:33.328Z,97949.83
2018-10-06T07:11:01.526Z,97948.65
2018-10-06T07:13:29.699Z,97951.25
2018-10-06T07:15:57.887Z,97952.27
2018-10-06T07:18:26.151Z,97954.75
2018-10-06T07:20:54.397Z,97943.77
2018-10-06T07:23:22.584Z,97944.09
2018-10-06T07:25:50.946Z,97947.57
2018-10-06T07:28:19.384Z,97948.38
2018-10-06T07:30:47.620Z,97948.69
2018-10-06T07:33:15.818Z,97942.25
2018-10-06T07:35:43.990Z,97950.23
2018-10-06T07:38:12.233Z,97947.03
2018-10-06T07:40:40.392Z,97944.63
2018-10-06T07:43:08.574Z,97946.17
2018-10-06T07:45:36.756Z,97955.38
2018-10-06T07:48:05.151Z,97965.23
2018-10-06T07:50:33.407Z,97959.37
2018-10-06T07:53:02.605Z,97963.66
2018-10-06T07:55:31.838Z,97964.14
2018-10-06T07:58:00.882Z,97952.30
2018-10-06T08:00:30.612Z,97950.23
2018-10-06T08:02:59.744Z,97951.55
2018-10-06T08:05:28.810Z,97945.77
2018-10-06T08:07:57.893Z,97951.83
2018-10-06T08:10:27.759Z,97957.40
2018-10-06T08:12:57.373Z,97944.70
2018-10-06T08:15:26.229Z,97944.50
2018-10-06T08:17:55.543Z,97946.47
2018-10-06T08:20:24.867Z,97939.84
2018-10-06T08:22:54.371Z,97937.25
2018-10-06T08:25:23.604Z,97935.78
2018-10-06T08:27:52.878Z,97940.25
2018-10-06T08:30:21.908Z,97936.11
2018-10-06T08:32:51.168Z,97940.58
2018-10-06T08:35:20.347Z,97936.25
2018-10-06T08:37:49.582Z,97941.01
2018-10-06T08:40:18.906Z,97938.91
2018-10-06T08:42:48.327Z,97933.35
2018-10-06T08:45:17.378Z,97933.67
2018-10-06T08:47:46.574Z,97945.94
2018-10-06T08:50:16.166Z,97945.94
2018-10-06T08:52:45.342Z,97942.94
2018-10-06T08:55:14.462Z,97943.53
2018-10-06T08:57:43.692Z,97928.71
2018-10-06T09:00:12.972Z,97926.58
2018-10-06T09:02:42.433Z,97926.76
2018-10-06T09:05:11.929Z,97928.95
2018-10-06T09:07:40.400Z,97928.06
2018-10-06T09:10:11.402Z,97925.28
2018-10-06T09:12:40.262Z,97923.22
2018-10-06T09:15:09.590Z,97912.09
2018-10-06T09:17:39.343Z,97915.84
2018-10-06T09:20:08.579Z,97916.96
2018-10-06T09:22:38.015Z,97916.16
2018-10-06T09:25:06.854Z,97913.67
2018-10-06T09:27:35.085Z,97908.56
2018-10-06T09:30:03.349Z,97909.40
2018-10-06T09:32:31.545Z,97907.02
2018-10-06T09:34:59.797Z,97908.02
2018-10-06T09:37:28.022Z,97907.84
2018-10-06T09:39:56.278Z,97906.65
2018-10-06T09:42:24.609Z,97896.34
2018-10-06T09:44:52.736Z,97886.64
2018-10-06T09:47:20.998Z,97887.34
2018-10-06T09:49:49.234Z,97873.20
2018-10-06T09:52:17.707Z,97874.27
2018-10-06T09:54:45.898Z,97869.75
2018-10-06T09:57:14.286Z,97874.13
2018-10-06T09:59:42.798Z,97881.95
2018-10-06T10:02:15.392Z,97878.70
2018-10-06T10:04:43.649Z,97872.33
2018-10-06T10:07:11.915Z,97877.90
2018-10-06T10:09:40.213Z,97871.40
2018-10-06T10:12:08.730Z,97879.93
2018-10-06T10:14:36.971Z,97882.22
2018-10-06T10:17:05.420Z,97871.58
2018-10-06T10:19:33.597Z,97860.49
2018-10-06T10:22:01.993Z,97864.94
2018-10-06T10:24:30.205Z,97858.63
2018-10-06T10:26:58.697Z,97846.28
2018-10-06T10:29:26.869Z,97852.45
2018-10-06T10:31:55.092Z,97838.50
2018-10-06T10:34:23.355Z,97838.77
2018-10-06T10:36:51.509Z,97834.77
2018-10-06T10:39:19.713Z,97833.34
2018-10-06T10:41:47.909Z,97824.89
2018-10-06T10:44:16.267Z,97816.75
2018-10-06T10:46:44.485Z,97812.14
2018-10-06T10:49:12.723Z,97810.04
2018-10-06T10:51:40.959Z,97803.58
2018-10-06T10:54:09.152Z,97799.53
2018-10-06T10:56:37.459Z,97790.38
2018-10-06T10:59:05.726Z,97788.38
2018-10-06T11:01:33.992Z,97783.16
2018-10-06T11:04:02.291Z,97781.77
2018-10-06T11:06:30.918Z,97774.45
2018-10-06T11:08:59.233Z,97775.86
2018-10-06T11:11:27.410Z,97755.77
2018-10-06T11:13:55.670Z,97754.91
2018-10-06T11:16:23.922Z,97751.63
2018-10-06T11:18:52.180Z,97746.67
2018-10-06T11:21:20.397Z,97743.56
2018-10-06T11:23:48.588Z,97744.16
2018-10-06T11:26:16.901Z,97738.55
2018-10-06T11:28:45.398Z,97729.47
2018-10-06T11:31:13.613Z,97719.19
2018-10-06T11:33:42.369Z,97716.50
2018-10-06T11:36:12.805Z,97719.35
2018-10-06T11:38:41.013Z,97714.08
2018-10-06T11:41:09.269Z,97701.19
2018-10-06T11:43:37.445Z,97696.37
2018-10-06T11:46:05.728Z,97694.92
2018-10-06T11:48:34.897Z,97696.36
2018-10-06T11:51:03.092Z,97685.61
2018-10-06T11:53:31.394Z,97679.32
2018-10-06T11:55:59.849Z,97677.25
2018-10-06T11:58:28.008Z,97675.75
2018-10-06T12:00:56.193Z,97681.62
2018-10-06T12:03:24.468Z,97673.66
2018-10-06T12:05:52.755Z,97663.94
2018-10-06T12:08:20.848Z,97666.02
2018-10-06T12:10:49.018Z,97664.03
2018-10-06T12:13:17.264Z,97659.78
2018-10-06T12:15:45.480Z,97657.61
2018-10-06T12:18:13.734Z,97646.02
2018-10-06T12:20:42.019Z,97647.47
2018-10-06T12:23:10.098Z,97644.66
2018-10-06T12:25:38.323Z,97640.31
2018-10-06T12:28:06.830Z,97637.25
2018-10-06T12:30:35.437Z,97632.53
2018-10-06T12:33:03.686Z,97634.55
2018-10-06T12:35:32.001Z,97623.06
2018-10-06T12:38:00.162Z,97622.42
2018-10-06T12:40:28.425Z,97624.11
2018-10-06T12:42:56.649Z,97622.55
2018-10-06T12:45:24.825Z,97614.98
2018-10-06T12:47:52.978Z,97618.87
2018-10-06T12:50:21.173Z,97617.00
2018-10-06T12:52:49.401Z,97609.88
2018-10-06T12:55:17.591Z,97605.95
2018-10-06T12:57:45.847Z,97600.83
2018-10-06T13:00:14.185Z,97601.47
2018-10-06T13:02:42.391Z,97597.48
2018-10-06T13:05:10.576Z,97591.52
2018-10-06T13:07:38.917Z,97587.30
2018-10-06T13:10:07.093Z,97589.23
2018-10-06T13:12:35.291Z,97575.36
2018-10-06T13:15:04.424Z,97582.48
2018-10-06T13:17:32.656Z,97573.01
2018-10-06T13:20:00.939Z,97571.86
2018-10-06T13:22:29.277Z,97567.27
2018-10-06T13:24:57.488Z,97563.81
2018-10-06T13:27:25.659Z,97558.22
2018-10-06T13:29:53.848Z,97559.16
2018-10-06T13:32:22.028Z,97545.56
2018-10-06T13:34:50.234Z,97543.11
2018-10-06T13:37:18.815Z,97539.91
2018-10-06T13:39:47.042Z,97533.20
2018-10-06T13:42:15.481Z,97525.70
2018-10-06T13:44:43.683Z,97520.17
2018-10-06T13:47:11.853Z,97521.64
2018-10-06T13:49:40.145Z,97520.77
2018-10-06T13:52:08.341Z,97516.05
2018-10-06T13:54:36.613Z,97505.72
2018-10-06T13:57:04.806Z,97507.55
2018-10-06T13:59:33.051Z,97499.85
2018-10-06T14:02:01.482Z,97501.28
2018-10-06T14:04:29.693Z,97500.21
2018-10-06T14:06:57.881Z,97493.34
2018-10-06T14:09:26.108Z,97487.95
2018-10-06T14:11:54.628Z,97484.87
2018-10-06T14:14:22.814Z,97479.20
2018-10-06T14:16:50.968Z,97477.73
2018-10-06T14:19:19.148Z,97472.61
2018-10-06T14:21:47.323Z,97477.36
2018-10-06T14:24:15.594Z,97469.49
2018-10-06T14:26:43.774Z,97470.71
2018-10-06T14:29:12.006Z,97471.02
2018-10-06T14:31:40.150Z,97464.91
2018-10-06T14:34:08.394Z,97474.53
2018-10-06T14:36:36.574Z,97467.92
2018-10-06T14:39:07.722Z,97474.89
2018-10-06T14:41:36.006Z,97472.23
2018-10-06T14:44:04.229Z,97471.27
2018-10-06T14:46:32.366Z,97470.92
2018-10-06T14:49:00.782Z,97465.86
2018-10-06T14:51:28.949Z,97465.55
2018-10-06T14:53:57.333Z,97468.45
2018-10-06T14:56:25.513Z,97460.78
2018-10-06T14:58:53.713Z,97463.59
2018-10-06T15:01:22.025Z,97462.14
2018-10-06T15:03:50.275Z,97461.05
2018-10-06T15:06:18.437Z,97448.63
2018-10-06T15:08:47.021Z,97438.73
2018-10-06T15:11:15.243Z,97439.56
2018-10-06T15:13:43.472Z,97432.28
2018-10-06T15:16:11.751Z,97432.59
2018-10-06T15:18:39.933Z,97433.64
2018-10-06T15:21:08.093Z,97429.19
2018-10-06T15:23:36.605Z,97433.54
2018-10-06T15:26:05.264Z,97427.93
2018-10-06T15:28:33.722Z,97421.44
2018-10-06T15:31:02.287Z,97416.73
2018-10-06T15:33:30.492Z,97418.63
2018-10-06T15:35:58.725Z,97430.66
2018-10-06T15:38:26.897Z,97426.83
2018-10-06T15:40:55.064Z,97425.02
2018-10-06T15:43:23.237Z,97425.97
2018-10-06T15:45:51.531Z,97418.97
2018-10-06T15:48:19.693Z,97419.58
2018-10-06T15:50:47.965Z,97418.52
2018-10-06T15:53:16.171Z,97413.91
2018-10-06T15:55:44.442Z,97414.01
2018-10-06T15:58:12.593Z,97414.44
2018-10-06T16:00:40.829Z,97411.42
2018-10-06T16:03:09.483Z,97412.94
2018-10-06T16:05:37.702Z,97413.16
2018-10-06T16:08:06.201Z,97414.29
2018-10-06T16:10:34.449Z,97411.77
2018-10-06T16:13:02.609Z,97408.12
2018-10-06T16:15:30.894Z,97414.75
2018-10-06T16:17:59.134Z,97417.16
2018-10-06T16:20:27.368Z,97415.69
2018-10-06T16:22:55.595Z,97413.78
2018-10-06T16:25:23.761Z,97414.50
2018-10-06T16:27:52.280Z,97421.19
2018-10-06T16:30:20.557Z,97415.70
2018-10-06T16:32:48.736Z,97418.38
2018-10-06T16:35:16.970Z,97404.09
2018-10-06T16:37:45.153Z,97402.06
2018-10-06T16:40:13.426Z,97404.45
2018-10-06T16:42:41.596Z,97406.14
2018-10-06T16:45:09.866Z,97408.64
2018-10-06T16:47:38.122Z,97402.80
2018-10-06T16:50:06.416Z,97399.37
2018-10-06T16:52:34.616Z,97403.20
2018-10-06T16:55:03.305Z,97406.41
2018-10-06T16:57:31.593Z,97410.41
2018-10-06T16:59:59.896Z,97407.38
2018-10-06T17:02:28.053Z,97408.02
2018-10-06T17:04:56.369Z,97408.23
2018-10-06T17:07:24.549Z,97408.08
2018-10-06T17:09:52.919Z,97405.72
2018-10-06T17:12:21.118Z,97407.94
2018-10-06T17:14:49.313Z,97407.20
2018-10-06T17:17:17.550Z,97403.50
2018-10-06T17:19:45.804Z,97409.64
2018-10-06T17:22:14.240Z,97401.83
2018-10-06T17:24:42.472Z,97404.44
2018-10-06T17:27:10.702Z,97409.63
2018-10-06T17:29:39.326Z,97409.46
2018-10-06T17:32:07.822Z,97408.50
2018-10-06T17:34:36.000Z,97410.52
2018-10-06T17:37:04.267Z,97409.92
2018-10-06T17:39:32.466Z,97401.70
2018-10-06T17:42:01.404Z,97402.87
2018-10-06T17:44:29.650Z,97397.75
2018-10-06T17:46:57.769Z,97404.82
2018-10-06T17:49:26.005Z,97410.13
2018-10-06T17:51:54.226Z,97411.07
2018-10-06T17:54:22.425Z,97414.41
2018-10-06T17:56:50.593Z,97412.64
2018-10-06T17:59:18.811Z,97415.97
2018-10-06T18:01:46.997Z,97414.20
2018-10-06T18:04:15.261Z,97410.67
2018-10-06T18:06:43.608Z,97416.95
2018-10-06T18:09:11.961Z,97416.55
2018-10-06T18:11:40.176Z,97413.41
2018-10-06T18:14:08.429Z,97411.64
2018-10-06T18:16:36.749Z,97407.52
2018-10-06T18:19:05.214Z,97409.64
2018-10-06T18:21:33.626Z,97413.75
2018-10-06T18:24:01.830Z,97410.41
2018-10-06T18:27:22.792Z,97419.62
2018-10-06T18:29:51.089Z,97416.67
2018-10-06T18:32:19.358Z,97420.41
2018-10-06T18:34:47.690Z,97417.84
2018-10-06T18:37:16.039Z,97416.45
2018-10-06T18:39:44.192Z,97416.25
2018-10-06T18:42:12.378Z,97417.38
2018-10-06T18:44:40.844Z,97416.02
2018-10-06T18:47:09.136Z,97417.92
2018-10-06T18:49:37.394Z,97422.20
2018-10-06T18:52:05.654Z,97430.77
2018-10-06T18:54:34.026Z,97420.88
2018-10-06T18:57:02.350Z,97423.38
2018-10-06T18:59:31.725Z,97421.70
2018-10-06T19:01:59.999Z,97422.41
2018-10-06T19:04:28.264Z,97420.98
2018-10-06T19:06:56.459Z,97427.16
2018-10-06T19:09:24.801Z,97432.98
2018-10-06T19:11:53.105Z,97427.10
2018-10-06T19:14:21.341Z,97427.86
2018-10-06T19:16:49.617Z,97431.01
2018-10-06T19:19:17.933Z,97430.81
2018-10-06T19:21:46.232Z,97427.05
2018-10-06T19:24:14.777Z,97426.00
2018-10-06T19:26:43.103Z,97424.20
2018-10-06T19:29:11.313Z,97427.81
2018-10-06T19:31:39.528Z,97425.42
2018-10-06T19:34:07.741Z,97425.95
2018-10-06T19:36:36.220Z,97429.20
2018-10-06T19:39:05.587Z,97433.59
2018-10-06T19:41:33.874Z,97437.08
2018-10-06T19:44:02.251Z,97433.31
2018-10-06T19:46:31.691Z,97435.05
2018-10-06T19:48:59.921Z,97442.61
2018-10-06T19:51:28.502Z,97438.44
2018-10-06T19:53:56.836Z,97444.95
2018-10-06T19:56:25.140Z,97448.81
2018-10-06T19:58:53.483Z,97451.97
2018-10-06T20:01:21.830Z,97449.31
2018-10-06T20:03:50.110Z,97456.11
2018-10-06T20:06:18.380Z,97464.27
2018-10-06T20:08:46.578Z,97472.23
2018-10-06T20:11:14.983Z,97469.23
2018-10-06T20:13:43.500Z,97472.59
2018-10-06T20:16:11.682Z,97473.80
2018-10-06T20:18:39.878Z,97473.38
2018-10-06T20:21:08.058Z,97475.33
2018-10-06T20:23:36.283Z,97473.02
2018-10-06T20:26:04.537Z,97472.81
2018-10-06T20:28:33.227Z,97473.18
2018-10-06T20:31:01.489Z,97471.81
2018-10-06T20:33:29.795Z,97468.08
2018-10-06T20:35:57.983Z,97471.77
2018-10-06T20:38:26.225Z,97466.67
2018-10-06T20:40:54.413Z,97467.22
2018-10-06T20:43:22.601Z,97464.93
2018-10-06T20:45:50.857Z,97468.45
2018-10-06T20:48:19.048Z,97466.51
2018-10-06T20:50:47.281Z,97466.71
2018-10-06T20:53:15.580Z,97461.62
2018-10-06T20:55:43.714Z,97464.48
2018-10-06T20:58:11.910Z,97467.88
2018-10-06T21:00:40.274Z,97465.52
2018-10-06T21:03:08.462Z,97466.88
2018-10-06T21:05:36.784Z,97466.09
2018-10-06T21:08:04.961Z,97467.45
2018-10-06T21:10:33.170Z,97472.27
2018-10-06T21:13:01.426Z,97469.48
2018-10-06T21:15:29.678Z,97469.66
2018-10-06T21:17:57.879Z,97474.12
2018-10-06T21:20:26.277Z,97473.08
2018-10-06T21:22:54.466Z,97472.05
2018-10-06T21:25:22.644Z,97471.43
2018-10-06T21:27:51.078Z,97465.13
2018-10-06T21:30:19.267Z,97471.13
2018-10-06T21:32:47.513Z,97473.94
2018-10-06T21:35:16.163Z,97471.53
2018-10-06T21:37:44.437Z,97465.64
2018-10-06T21:40:12.657Z,97454.08
2018-10-06T21:42:40.899Z,97452.14
2018-10-06T21:45:12.157Z,97455.50
2018-10-06T21:47:40.461Z,97453.77
2018-10-06T21:50:08.699Z,97460.02
2018-10-06T21:52:37.457Z,97457.49
2018-10-06T21:55:06.347Z,97451.29
2018-10-06T21:57:34.528Z,97457.49
2018-10-06T22:00:02.948Z,97452.14
2018-10-06T22:02:31.203Z,97449.09
2018-10-06T22:04:59.495Z,97449.20
2018-10-06T22:07:28.042Z,97449.89
2018-10-06T22:09:56.242Z,97450.54
2018-10-06T22:12:24.660Z,97455.95
2018-10-06T22:14:53.186Z,97454.53
2018-10-06T22:17:21.386Z,97453.11
2018-10-06T22:19:49.637Z,97461.82
2018-10-06T22:22:17.804Z,97456.94
2018-10-06T22:24:46.009Z,97461.98
2018-10-06T22:27:14.262Z,97458.45
2018-10-06T22:29:42.479Z,97456.52
2018-10-06T22:32:10.678Z,97468.80
2018-10-06T22:34:38.852Z,97464.34
2018-10-06T22:37:07.186Z,97468.44
2018-10-06T22:39:35.411Z,97461.03
2018-10-06T22:42:03.598Z,97461.40
2018-10-06T22:44:31.765Z,97458.61
2018-10-06T22:47:00.213Z,97459.05
2018-10-06T22:49:28.389Z,97465.45
2018-10-06T22:51:56.817Z,97462.50
2018-10-06T22:54:25.317Z,97456.05
2018-10-06T22:56:53.602Z,97453.10
2018-10-06T22:59:21.737Z,97447.06
2018-10-06T23:01:49.931Z,97443.13
2018-10-06T23:04:18.791Z,97444.48
2018-10-06T23:06:47.039Z,97450.59
2018-10-06T23:09:15.283Z,97448.28
2018-10-06T23:11:43.654Z,97451.06
2018-10-06T23:14:11.930Z,97448.58
2018-10-06T23:16:40.334Z,97439.81
2018-10-06T23:19:09.282Z,97438.66
2018-10-06T23:21:37.498Z,97438.29
2018-10-06T23:24:05.890Z,97440.23
2018-10-06T23:26:34.062Z,97439.66
2018-10-06T23:29:02.319Z,97434.92
2018-10-06T23:31:30.582Z,97437.08
2018-10-06T23:33:58.756Z,97431.63
2018-10-06T23:36:27.115Z,97440.02
2018-10-06T23:38:55.288Z,97436.50
2018-10-06T23:41:23.482Z,97437.66
2018-10-06T23:43:51.745Z,97437.00
2018-10-06T23:46:19.988Z,97446.55
2018-10-06T23:48:48.410Z,97441.45
2018-10-06T23:51:16.586Z,97444.97
2018-10-06T23:53:44.858Z,97447.70
2018-10-06T23:56:13.040Z,97440.40
2018-10-06T23:58:41.224Z,97442.70
